Time;durP1;ratioP1;P1;durP2;ratioP2;P2;SDS_P1;SDS_P2;PMS_P1;PMS_P2;Temp;Humidity;BMP_temperature;BMP_pressure;BME280_temperature;BME280_humidity;BME280_pressure;Samples;Min_cycle;Max_cycle;Signal;HPM_P1;HPM_P2
2022/05/24 00:00:34;;;;;;;5.17;3.37;;;;;;;15.10;80.47;98591.94;5109499;28;20201;-86
2022/05/24 00:03:01;;;;;;;4.57;3.20;;;;;;;15.10;80.79;98602.25;5110042;28;20642;-85
2022/05/24 00:05:31;;;;;;;5.07;3.87;;;;;;;15.13;80.38;98596.00;5109670;28;20284;-85
2022/05/24 00:07:58;;;;;;;5.57;3.40;;;;;;;15.16;80.33;98601.63;5109667;28;20219;-85
2022/05/24 00:10:29;;;;;;;4.40;3.37;;;;;;;15.17;80.61;98598.09;5109743;28;20197;-86
2022/05/24 00:12:57;;;;;;;4.53;3.17;;;;;;;15.13;80.32;98601.94;5109566;28;20217;-85
2022/05/24 00:15:27;;;;;;;6.13;3.20;;;;;;;15.12;80.45;98605.44;5109605;28;20260;-85
2022/05/24 00:17:58;;;;;;;5.40;3.50;;;;;;;15.10;80.06;98604.81;5109523;28;20678;-85
2022/05/24 00:20:31;;;;;;;3.90;3.33;;;;;;;15.02;80.52;98604.75;5109752;28;20208;-84
2022/05/24 00:22:58;;;;;;;7.23;3.33;;;;;;;15.01;80.53;98612.63;5109965;28;20274;-85
2022/05/24 00:25:25;;;;;;;5.77;3.40;;;;;;;14.95;81.00;98608.88;5110886;28;20298;-86
2022/05/24 00:27:52;;;;;;;4.47;3.40;;;;;;;14.89;80.82;98612.06;5113083;27;20424;-85
2022/05/24 00:30:20;;;;;;;6.63;3.90;;;;;;;14.87;81.44;98614.78;5112943;28;20211;-85
2022/05/24 00:32:47;;;;;;;3.43;3.03;;;;;;;14.83;81.70;98612.66;5113393;28;20226;-85
2022/05/24 00:35:16;;;;;;;5.13;3.20;;;;;;;14.77;81.98;98618.41;5113324;28;20250;-85
2022/05/24 00:37:44;;;;;;;6.50;3.37;;;;;;;14.68;82.15;98615.75;5112934;28;20614;-85
2022/05/24 00:40:21;;;;;;;4.23;3.37;;;;;;;14.60;82.82;98612.31;5113293;28;20202;-85
2022/05/24 00:42:49;;;;;;;5.53;3.40;;;;;;;14.54;83.28;98611.13;5113118;28;20222;-85
2022/05/24 00:45:22;;;;;;;4.03;3.60;;;;;;;14.48;83.37;98607.34;5113283;28;20201;-86
2022/05/24 00:47:53;;;;;;;6.33;3.60;;;;;;;14.45;83.39;98606.84;5113213;28;20226;-85
2022/05/24 00:50:26;;;;;;;5.97;3.47;;;;;;;14.43;83.85;98608.78;5113110;28;20224;-85
2022/05/24 00:52:56;;;;;;;4.10;3.63;;;;;;;14.38;83.83;98605.84;5112811;28;20221;-85
2022/05/24 00:55:25;;;;;;;6.43;3.50;;;;;;;14.36;84.54;98608.53;5112980;28;20193;-86
2022/05/24 00:58:02;;;;;;;3.80;3.40;;;;;;;14.32;84.40;98601.28;5112524;28;20238;-85
2022/05/24 01:00:29;;;;;;;5.40;3.47;;;;;;;14.28;84.86;98598.16;5112838;28;20203;-86
2022/05/24 01:02:56;;;;;;;4.87;3.60;;;;;;;14.21;85.09;98603.09;5112642;28;20900;-86
2022/05/24 01:05:28;;;;;;;4.90;3.80;;;;;;;14.16;85.97;98596.78;5112441;28;20206;-86
2022/05/24 01:07:55;;;;;;;4.70;3.70;;;;;;;14.12;86.16;98598.81;5112142;28;20213;-84
2022/05/24 01:10:27;;;;;;;4.63;3.43;;;;;;;14.02;86.95;98595.50;5112463;28;20207;-84
2022/05/24 01:12:59;;;;;;;5.03;3.70;;;;;;;13.95;87.88;98604.75;5112398;28;20228;-84
2022/05/24 01:15:27;;;;;;;4.80;3.57;;;;;;;13.86;88.45;98603.06;5112276;28;20205;-85
2022/05/24 01:17:55;;;;;;;4.23;3.83;;;;;;;13.84;88.97;98602.38;5112235;28;20237;-84
2022/05/24 01:20:24;;;;;;;5.87;4.10;;;;;;;13.75;89.07;98598.91;5112531;28;20645;-85
2022/05/24 01:23:12;;;;;;;6.47;3.90;;;;;;;13.63;89.59;98606.00;5112080;28;20224;-86
2022/05/24 01:25:50;;;;;;;4.30;3.90;;;;;;;13.52;90.13;98603.59;5111962;28;20220;-86
2022/05/24 01:28:25;;;;;;;4.97;3.70;;;;;;;13.46;90.46;98609.31;5112054;28;20277;-84
2022/05/24 01:30:52;;;;;;;4.67;4.07;;;;;;;13.32;90.83;98613.13;5111882;28;20215;-84
2022/05/24 01:36:12;;;;;;;5.07;4.13;;;;;;;13.11;92.38;98601.25;5111071;28;20215;-85
2022/05/24 01:38:44;;;;;;;5.57;4.30;;;;;;;13.00;93.16;98604.00;5112097;28;20297;-85
2022/05/24 01:41:14;;;;;;;5.77;4.37;;;;;;;12.95;93.36;98605.38;5111595;28;20288;-84
2022/05/24 01:43:43;;;;;;;6.57;4.13;;;;;;;12.93;93.86;98613.19;5111717;28;20197;-86
2022/05/24 01:46:13;;;;;;;5.87;4.30;;;;;;;12.99;94.42;98611.84;5111760;28;20288;-86
2022/05/24 01:48:47;;;;;;;6.33;4.20;;;;;;;12.96;94.72;98617.25;5111805;28;20284;-84
2022/05/24 01:51:18;;;;;;;6.73;4.67;;;;;;;12.87;94.92;98614.53;5111979;28;20224;-84
2022/05/24 01:53:50;;;;;;;6.43;4.73;;;;;;;12.79;95.55;98614.41;5111602;28;20226;-84
2022/05/24 01:56:20;;;;;;;5.93;4.57;;;;;;;12.83;95.54;98613.22;5111350;28;20251;-84
2022/05/24 01:58:54;;;;;;;7.87;4.63;;;;;;;12.74;95.63;98616.59;5111432;28;20675;-85
2022/05/24 02:01:30;;;;;;;6.60;4.70;;;;;;;12.72;96.27;98615.13;5111707;28;20254;-85
2022/05/24 02:04:01;;;;;;;7.00;4.80;;;;;;;12.66;96.96;98608.75;5111690;28;20280;-85
2022/05/24 02:06:29;;;;;;;6.07;4.57;;;;;;;12.62;97.09;98605.66;5111454;27;20303;-84
2022/05/24 02:08:56;;;;;;;6.67;4.90;;;;;;;12.63;96.83;98603.91;5111406;28;20202;-86
2022/05/24 02:11:27;;;;;;;8.63;5.23;;;;;;;12.62;96.55;98607.41;5111195;28;20225;-85
2022/05/24 02:14:01;;;;;;;6.93;5.17;;;;;;;12.60;96.42;98609.31;5111355;28;20193;-84
2022/05/24 02:16:31;;;;;;;9.43;5.63;;;;;;;12.58;96.71;98608.63;5111263;28;20237;-85
2022/05/24 02:18:59;;;;;;;8.20;5.83;;;;;;;12.58;96.91;98608.63;5111407;27;20197;-84
2022/05/24 02:21:26;;;;;;;7.53;5.53;;;;;;;12.58;97.01;98613.75;5111524;28;20639;-86
2022/05/24 02:23:53;;;;;;;9.37;5.80;;;;;;;12.60;97.48;98617.81;5110993;28;20205;-85
2022/05/24 02:26:23;;;;;;;9.33;6.40;;;;;;;12.67;97.55;98620.63;5110639;28;20206;-84
2022/05/24 02:28:52;;;;;;;8.80;5.63;;;;;;;12.61;97.56;98621.19;5110586;28;20200;-84
2022/05/24 02:31:22;;;;;;;9.03;5.73;;;;;;;12.65;97.61;98625.91;5110702;28;20201;-85
2022/05/24 02:33:49;;;;;;;7.17;5.20;;;;;;;12.65;97.59;98627.66;5110828;28;20402;-86
2022/05/24 02:36:18;;;;;;;7.33;5.50;;;;;;;12.71;96.69;98634.00;5110595;28;20258;-85
2022/05/24 02:38:46;;;;;;;7.63;5.90;;;;;;;12.75;96.60;98625.91;5110617;28;20197;-85
2022/05/24 02:41:31;;;;;;;6.90;5.57;;;;;;;12.68;96.50;98629.94;5110636;28;20243;-86
2022/05/24 02:44:00;;;;;;;8.60;5.87;;;;;;;12.68;97.20;98629.94;5111020;27;20192;-85
2022/05/24 02:46:30;;;;;;;7.63;5.97;;;;;;;12.63;97.31;98627.78;5110709;28;20703;-86
2022/05/24 02:48:57;;;;;;;8.23;6.10;;;;;;;12.57;97.65;98638.59;5109891;28;20276;-85
2022/05/24 02:51:25;;;;;;;10.43;6.40;;;;;;;12.51;97.99;98639.13;5110614;28;20225;-86
2022/05/24 02:53:53;;;;;;;9.80;5.87;;;;;;;12.51;98.38;98628.03;5110316;28;20563;-86
2022/05/24 02:56:20;;;;;;;8.57;6.00;;;;;;;12.47;98.58;98642.91;5110184;28;20641;-85
2022/05/24 02:58:47;;;;;;;6.83;5.63;;;;;;;12.36;98.39;98641.28;5110397;28;20258;-85
2022/05/24 03:01:18;;;;;;;9.47;5.80;;;;;;;12.26;98.48;98644.75;5110129;28;20662;-84
2022/05/24 03:03:47;;;;;;;8.00;5.57;;;;;;;12.21;99.19;98637.47;5110324;28;20189;-85
2022/05/24 03:06:14;;;;;;;7.27;5.67;;;;;;;12.17;99.75;98641.25;5110158;28;20285;-85
2022/05/24 03:11:25;;;;;;;7.70;5.93;;;;;;;12.17;100.00;98641.25;5110502;28;20228;-83
2022/05/24 03:16:36;;;;;;;6.07;5.17;;;;;;;12.19;100.00;98642.75;5109700;28;20342;-84
2022/05/24 03:19:05;;;;;;;9.00;5.90;;;;;;;12.21;100.00;98632.34;5110094;28;20198;-85
2022/05/24 03:21:31;;;;;;;8.63;5.53;;;;;;;12.17;100.00;98636.13;5109763;28;20616;-85
2022/05/24 03:23:59;;;;;;;7.17;5.70;;;;;;;12.12;100.00;98635.69;5109928;28;20197;-84
2022/05/24 03:26:26;;;;;;;8.70;6.43;;;;;;;12.16;100.00;98629.38;5109640;28;20618;-85
2022/05/24 03:28:53;;;;;;;8.43;6.07;;;;;;;12.20;100.00;98636.66;5109865;28;20204;-85
2022/05/24 03:31:20;;;;;;;8.63;6.07;;;;;;;12.19;100.00;98634.25;5109919;28;20249;-84
2022/05/24 03:33:46;;;;;;;10.43;6.27;;;;;;;12.23;100.00;98635.59;5109797;28;20186;-85
2022/05/24 03:36:15;;;;;;;10.67;6.60;;;;;;;12.29;100.00;98641.94;5109774;28;20257;-84
2022/05/24 03:38:41;;;;;;;7.63;6.20;;;;;;;12.32;100.00;98645.03;5109762;28;20232;-84
2022/05/24 03:41:08;;;;;;;10.57;6.17;;;;;;;12.43;100.00;98642.34;5109675;28;20197;-85
2022/05/24 03:43:35;;;;;;;9.50;6.10;;;;;;;12.49;100.00;98646.16;5109867;28;20193;-85
2022/05/24 03:46:04;;;;;;;8.30;5.60;;;;;;;12.51;100.00;98643.44;5109516;28;20209;-84
2022/05/24 03:48:31;;;;;;;9.53;5.87;;;;;;;12.55;100.00;98640.47;5109851;28;20254;-85
2022/05/24 03:50:58;;;;;;;8.60;6.60;;;;;;;12.65;100.00;98646.44;5109502;28;20224;-85
2022/05/24 03:53:26;;;;;;;8.50;6.27;;;;;;;12.71;100.00;98637.38;5109713;28;20217;-85
2022/05/24 03:55:54;;;;;;;8.57;5.90;;;;;;;12.71;100.00;98639.94;5109725;28;20213;-84
2022/05/24 03:58:21;;;;;;;9.30;5.50;;;;;;;12.83;100.00;98643.19;5109504;28;20285;-84
2022/05/24 04:00:48;;;;;;;9.03;6.70;;;;;;;12.95;100.00;98646.41;5113919;28;20204;-85
2022/05/24 04:03:15;;;;;;;10.73;6.50;;;;;;;12.98;100.00;98651.28;5113815;28;20273;-85
2022/05/24 04:05:43;;;;;;;11.17;6.30;;;;;;;13.05;100.00;98639.50;5113514;28;20193;-85
2022/05/24 04:08:10;;;;;;;10.23;6.10;;;;;;;13.09;100.00;98643.44;5113770;28;20236;-84
2022/05/24 04:10:39;;;;;;;7.93;6.07;;;;;;;13.14;100.00;98652.31;5113619;28;20209;-85
2022/05/24 04:13:07;;;;;;;8.07;6.17;;;;;;;13.25;100.00;98648.81;5113567;28;20224;-85
2022/05/24 04:15:34;;;;;;;8.73;6.60;;;;;;;13.33;100.00;98656.66;5113789;28;20209;-85
2022/05/24 04:18:01;;;;;;;10.90;7.10;;;;;;;13.35;100.00;98648.78;5113497;28;20237;-85
2022/05/24 04:20:28;;;;;;;10.40;6.43;;;;;;;13.43;100.00;98655.81;5113722;28;20216;-85
2022/05/24 04:22:57;;;;;;;9.03;6.30;;;;;;;13.56;100.00;98656.31;5113429;28;20274;-85
2022/05/24 04:25:25;;;;;;;10.90;7.17;;;;;;;13.75;100.00;98661.38;5113228;28;20288;-84
2022/05/24 04:27:53;;;;;;;8.63;6.93;;;;;;;13.88;100.00;98655.13;5113256;28;20228;-84
2022/05/24 04:30:20;;;;;;;10.17;6.87;;;;;;;13.94;100.00;98664.81;5113232;28;20208;-84
2022/05/24 04:32:47;;;;;;;10.77;7.13;;;;;;;14.07;100.00;98667.84;5113065;28;20660;-85
2022/05/24 04:35:14;;;;;;;12.83;7.57;;;;;;;14.29;99.11;98673.56;5113129;28;20703;-85
2022/05/24 04:37:41;;;;;;;12.73;7.37;;;;;;;14.35;98.69;98673.78;5113109;28;20236;-85
2022/05/24 04:40:09;;;;;;;9.60;7.33;;;;;;;14.56;97.63;98673.53;5113280;28;20198;-85
2022/05/24 04:42:35;;;;;;;11.57;7.10;;;;;;;14.66;97.02;98676.88;5113208;28;20224;-84
2022/05/24 04:45:07;;;;;;;10.40;7.57;;;;;;;14.85;96.76;98670.75;5113020;28;20619;-84
2022/05/24 04:47:35;;;;;;;11.30;6.80;;;;;;;15.06;95.52;98672.19;5112879;28;20226;-85
2022/05/24 04:50:06;;;;;;;9.37;6.93;;;;;;;15.19;94.49;98671.81;5112974;28;20199;-79
2022/05/24 04:52:35;;;;;;;8.20;6.30;;;;;;;15.42;93.35;98667.78;5113069;28;20221;-83
2022/05/24 04:55:04;;;;;;;10.47;5.83;;;;;;;15.71;91.57;98666.69;5112722;28;20194;-79
2022/05/24 04:57:31;;;;;;;7.57;5.70;;;;;;;15.87;91.61;98666.75;5112674;28;20237;-79
2022/05/24 04:59:57;;;;;;;7.43;6.03;;;;;;;16.19;92.69;98675.56;5112824;28;20216;-79
2022/05/24 05:02:26;;;;;;;8.87;6.00;;;;;;;16.34;90.02;98673.19;5112477;28;20221;-84
2022/05/24 05:04:54;;;;;;;7.10;5.83;;;;;;;16.50;87.91;98689.50;5112774;28;20576;-79
2022/05/24 05:07:21;;;;;;;7.07;5.50;;;;;;;16.74;86.84;98695.69;5112319;28;20288;-79
2022/05/24 05:09:50;;;;;;;9.70;5.80;;;;;;;16.81;86.54;98698.44;5112258;28;20592;-79
2022/05/24 05:12:17;;;;;;;7.33;5.80;;;;;;;16.91;85.56;98702.50;5111593;28;20282;-79
2022/05/24 05:14:44;;;;;;;8.63;6.10;;;;;;;17.31;85.20;98708.63;5112699;28;20197;-84
2022/05/24 05:17:11;;;;;;;7.93;5.70;;;;;;;17.31;81.97;98708.63;5112067;28;20345;-79
2022/05/24 05:19:40;;;;;;;7.63;5.80;;;;;;;17.60;82.75;98709.88;5112579;28;20228;-79
2022/05/24 05:22:07;;;;;;;8.87;5.97;;;;;;;17.88;82.29;98711.13;5112285;28;20209;-84
2022/05/24 05:24:34;;;;;;;7.53;5.23;;;;;;;18.22;81.68;98714.41;5112193;28;20205;-79
2022/05/24 05:27:01;;;;;;;7.10;5.23;;;;;;;18.33;81.19;98714.81;5112432;28;20217;-84
2022/05/24 05:32:18;;;;;;;7.80;5.00;;;;;;;18.16;81.44;98728.81;5111958;28;20220;-79
2022/05/24 05:34:48;;;;;;;8.00;5.30;;;;;;;18.21;82.95;98728.28;5111812;28;20298;-84
2022/05/24 05:37:15;;;;;;;9.63;5.00;;;;;;;18.30;81.75;98733.28;5111764;28;20270;-84
2022/05/24 05:39:42;;;;;;;5.87;5.00;;;;;;;18.27;81.37;98741.38;5111977;28;20717;-84
2022/05/24 05:42:09;;;;;;;6.07;4.90;;;;;;;18.29;81.53;98744.59;5111779;28;20220;-79
2022/05/24 05:44:36;;;;;;;13.27;5.67;;;;;;;18.42;81.52;98735.50;5111726;28;20287;-82
2022/05/24 05:47:03;;;;;;;7.60;5.07;;;;;;;18.69;80.70;98749.75;5111445;28;20229;-80
2022/05/24 05:49:30;;;;;;;6.23;5.40;;;;;;;18.91;80.61;98741.22;5111828;28;20271;-79
2022/05/24 05:51:58;;;;;;;7.60;4.70;;;;;;;19.21;78.92;98752.47;5111728;28;20301;-85
2022/05/24 05:54:25;;;;;;;7.67;5.53;;;;;;;19.44;76.09;98754.25;5111930;28;20202;-84
2022/05/24 05:56:52;;;;;;;16.83;7.40;;;;;;;19.16;74.94;98751.38;5111298;28;20226;-85
2022/05/24 05:59:19;;;;;;;22.00;10.37;;;;;;;18.98;76.74;98754.28;5111219;28;20236;-85
2022/05/24 06:01:46;;;;;;;562.93;252.07;;;;;;;18.89;77.77;98750.13;5111374;28;20214;-84
2022/05/24 06:04:13;;;;;;;484.37;197.67;;;;;;;19.00;77.99;98747.16;5111571;28;20260;-85
2022/05/24 06:06:42;;;;;;;365.23;132.63;;;;;;;19.09;79.01;98755.66;5111466;28;20237;-84
2022/05/24 06:09:10;;;;;;;15.93;7.97;;;;;;;19.47;79.67;98759.06;5111878;28;20209;-86
2022/05/24 06:11:37;;;;;;;26.90;13.73;;;;;;;19.83;76.12;98758.44;5111264;28;20225;-85
2022/05/24 06:14:04;;;;;;;23.93;12.63;;;;;;;20.08;75.16;98746.78;5111359;28;20204;-85
2022/05/24 06:16:30;;;;;;;60.23;28.30;;;;;;;20.50;73.81;98752.28;5111291;28;20277;-85
2022/05/24 06:18:57;;;;;;;33.37;18.73;;;;;;;20.78;72.80;98750.63;5111318;28;20724;-86
2022/05/24 06:21:24;;;;;;;13.27;8.10;;;;;;;21.00;71.14;98756.63;5111220;28;20691;-84
2022/05/24 06:23:51;;;;;;;5.60;4.87;;;;;;;21.29;70.61;98754.06;5111174;28;20288;-81
2022/05/24 06:26:21;;;;;;;7.40;4.53;;;;;;;21.52;70.33;98753.88;5111448;28;20218;-83
2022/05/24 06:28:48;;;;;;;89.67;40.83;;;;;;;21.72;70.80;98749.59;5110992;28;20272;-84
2022/05/24 06:31:15;;;;;;;45.60;20.13;;;;;;;21.73;66.66;98748.63;5111225;28;20200;-82
2022/05/24 06:33:43;;;;;;;277.10;110.07;;;;;;;21.92;66.43;98750.53;5111018;28;20249;-81
2022/05/24 06:36:11;;;;;;;280.10;103.53;;;;;;;22.06;67.98;98748.00;5111443;28;20237;-81
2022/05/24 06:38:38;;;;;;;40.33;18.57;;;;;;;22.33;65.02;98756.75;5110970;28;20591;-81
2022/05/24 06:41:05;;;;;;;262.33;101.27;;;;;;;22.49;65.35;98751.22;5110834;28;20259;-83
2022/05/24 06:43:33;;;;;;;31.23;15.27;;;;;;;22.48;63.93;98751.38;5110821;28;20233;-79
2022/05/24 06:46:00;;;;;;;148.60;50.57;;;;;;;22.44;65.87;98750.19;5110804;28;20207;-77
2022/05/24 06:48:28;;;;;;;50.20;20.43;;;;;;;22.50;63.19;98757.22;5111087;28;20223;-79
2022/05/24 06:50:55;;;;;;;110.60;40.03;;;;;;;22.45;64.77;98749.19;5110799;28;20205;-84
2022/05/24 06:53:22;;;;;;;9.27;5.10;;;;;;;22.44;64.15;98752.78;5110867;28;20220;-79
2022/05/24 06:55:49;;;;;;;217.43;96.30;;;;;;;22.53;64.66;98756.81;5109718;28;20198;-80
2022/05/24 06:58:15;;;;;;;6.57;4.67;;;;;;;22.45;62.60;98749.19;5109836;28;20249;-78
2022/05/24 07:03:28;;;;;;;8.47;5.77;;;;;;;22.90;62.89;98749.50;5110500;28;20683;-78
2022/05/24 07:05:55;;;;;;;6.47;4.37;;;;;;;23.22;61.99;98758.38;5110341;28;20231;-83
2022/05/24 07:08:22;;;;;;;19.57;11.20;;;;;;;23.53;61.71;98765.56;5110121;28;20221;-79
2022/05/24 07:10:49;;;;;;;5.27;4.23;;;;;;;23.32;58.60;98750.94;5110370;27;20211;-76
2022/05/24 07:13:19;;;;;;;5.37;4.40;;;;;;;23.20;59.26;98755.16;5109883;28;20228;-80
2022/05/24 07:15:49;;;;;;;9.73;5.03;;;;;;;23.22;61.60;98761.78;5110638;28;20872;-79
2022/05/24 07:18:16;;;;;;;10.90;7.10;;;;;;;23.37;60.74;98764.19;5110045;28;20236;-79
2022/05/24 07:20:43;;;;;;;5.83;3.70;;;;;;;23.35;59.89;98762.78;5110217;28;20242;-83
2022/05/24 07:23:14;;;;;;;7.63;5.20;;;;;;;23.78;61.00;98757.16;5110468;28;20217;-83
2022/05/24 07:25:42;;;;;;;42.58;20.80;;;;;;;23.93;57.88;98765.53;5110342;28;20217;-83
2022/05/24 07:28:10;;;;;;;8.00;4.43;;;;;;;24.34;57.37;98765.19;5110071;28;20244;-84
2022/05/24 07:30:37;;;;;;;15.52;7.85;;;;;;;24.31;55.35;98770.03;5109693;28;20212;-78
2022/05/24 07:33:05;;;;;;;5.75;3.75;;;;;;;23.96;54.37;98767.75;5109662;28;20312;-78
2022/05/24 07:35:33;;;;;;;5.18;4.32;;;;;;;24.23;55.93;98772.88;5109864;28;20261;-78
2022/05/24 07:37:59;;;;;;;6.40;4.55;;;;;;;24.71;57.28;98769.88;5109783;28;20229;-84
2022/05/24 07:45:57;;;;;;;15.15;7.90;;;;;;;25.66;52.01;98765.34;5087966;28;20712;-84
2022/05/24 07:48:26;;;;;;;20.90;7.20;;;;;;;25.59;51.53;98761.97;5110076;28;20253;-78
2022/05/24 07:50:53;;;;;;;7.13;5.07;;;;;;;25.79;52.55;98753.94;5109990;28;20427;-78
2022/05/24 07:53:20;;;;;;;9.20;5.75;;;;;;;25.63;49.84;98757.94;5109591;28;20635;-77
2022/05/24 07:55:48;;;;;;;9.88;5.80;;;;;;;25.94;53.42;98749.16;5113302;28;20201;-81
2022/05/24 07:58:15;;;;;;;9.07;4.80;;;;;;;26.36;53.05;98745.88;5109279;28;20225;-82
2022/05/24 08:00:42;;;;;;;10.10;6.50;;;;;;;26.55;54.33;98759.75;5109326;28;20208;-76
2022/05/24 08:03:09;;;;;;;7.93;4.75;;;;;;;26.65;47.80;98757.41;5109535;28;20221;-83
2022/05/24 08:05:38;;;;;;;4.68;3.53;;;;;;;26.71;48.18;98767.00;5109675;28;20194;-83
2022/05/24 08:08:07;;;;;;;5.38;4.30;;;;;;;26.20;46.47;98762.97;5109407;28;20651;-82
2022/05/24 08:10:34;;;;;;;5.15;3.60;;;;;;;26.09;46.26;98761.91;5109626;28;20209;-78
2022/05/24 08:13:04;;;;;;;5.15;3.83;;;;;;;26.11;49.75;98756.44;5109420;28;20227;-83
2022/05/24 08:15:31;;;;;;;6.45;3.88;;;;;;;25.89;49.42;98758.69;5109457;28;20245;-83
2022/05/24 08:17:58;;;;;;;6.35;4.25;;;;;;;25.50;49.77;98768.53;5109377;28;20232;-77
2022/05/24 08:20:25;;;;;;;4.78;3.90;;;;;;;25.10;52.05;98778.47;5109394;28;20198;-83
2022/05/24 08:22:54;;;;;;;6.88;3.15;;;;;;;24.61;52.86;98770.34;5109452;28;20224;-83
2022/05/24 08:25:21;;;;;;;4.85;3.55;;;;;;;24.76;55.45;98772.66;5108900;28;20209;-78
2022/05/24 08:27:48;;;;;;;5.20;3.67;;;;;;;25.56;53.08;98772.09;5109269;28;20217;-78
2022/05/24 08:30:17;;;;;;;7.85;3.80;;;;;;;26.08;52.46;98769.97;5109604;28;20586;-79
2022/05/24 08:32:44;;;;;;;7.78;3.78;;;;;;;25.77;49.84;98774.28;5109313;28;20225;-79
2022/05/24 08:35:13;;;;;;;7.45;3.40;;;;;;;25.73;49.27;98765.28;5109222;28;20205;-83
2022/05/24 08:37:41;;;;;;;5.82;3.65;;;;;;;25.68;52.22;98778.22;5109522;28;20217;-79
2022/05/24 08:40:12;;;;;;;6.07;3.85;;;;;;;25.71;52.32;98775.16;5109387;28;20240;-80
2022/05/24 08:42:51;;;;;;;6.35;3.53;;;;;;;25.56;51.07;98783.38;5109326;28;20595;-83
2022/05/24 08:48:27;;;;;;;6.13;3.60;;;;;;;25.75;50.60;98778.97;5112964;28;20220;-79
2022/05/24 08:50:59;;;;;;;4.63;3.55;;;;;;;26.20;52.14;98778.69;5113162;28;20201;-77
2022/05/24 08:53:32;;;;;;;7.45;4.13;;;;;;;26.32;49.37;98787.41;5112699;28;20249;-85
2022/05/24 08:56:05;;;;;;;7.70;3.20;;;;;;;26.64;48.86;98789.88;5112943;28;20212;-79
2022/05/24 08:58:35;;;;;;;6.68;3.90;;;;;;;26.68;48.09;98787.63;5112701;28;20236;-83
2022/05/24 09:01:02;;;;;;;5.80;3.25;;;;;;;26.34;48.97;98793.25;5112761;28;20209;-78
2022/05/24 09:03:29;;;;;;;5.32;3.25;;;;;;;26.03;48.87;98796.03;5112719;28;20201;-83
2022/05/24 09:06:05;;;;;;;5.07;3.50;;;;;;;25.75;50.14;98799.91;5112700;28;20590;-78
2022/05/24 09:08:41;;;;;;;4.90;3.28;;;;;;;25.78;50.26;98796.88;5112602;28;20197;-77
2022/05/24 09:11:14;;;;;;;5.05;3.40;;;;;;;25.88;49.80;98799.00;5112431;28;20208;-84
2022/05/24 09:14:04;;;;;;;6.05;3.60;;;;;;;25.96;51.20;98810.00;5112563;28;20196;-78
2022/05/24 09:16:40;;;;;;;4.00;3.40;;;;;;;26.18;53.25;98806.97;5112425;28;20221;-79
2022/05/24 09:19:16;;;;;;;4.85;3.08;;;;;;;25.86;51.34;98809.72;5112348;28;20225;-78
2022/05/24 09:21:44;;;;;;;5.82;3.47;;;;;;;25.50;49.13;98810.41;5112371;28;20447;-79
2022/05/24 09:24:22;;;;;;;5.65;3.47;;;;;;;25.29;51.81;98814.19;5112336;28;20225;-83
2022/05/24 09:27:09;;;;;;;5.75;3.58;;;;;;;24.99;53.29;98814.78;5112089;28;20312;-76
2022/05/24 09:29:36;;;;;;;5.57;3.78;;;;;;;24.97;54.75;98827.25;5112411;28;20200;-79
2022/05/24 09:32:08;;;;;;;7.03;3.60;;;;;;;24.59;53.74;98830.66;5111865;28;20225;-77
2022/05/24 09:34:37;;;;;;;4.82;3.55;;;;;;;24.62;54.54;98830.25;5112201;28;20284;-78
2022/05/24 09:37:09;;;;;;;5.40;3.40;;;;;;;24.51;54.48;98823.06;5111991;28;20714;-81
2022/05/24 09:39:38;;;;;;;6.15;3.35;;;;;;;24.67;52.90;98823.56;5111943;27;20237;-83
2022/05/24 09:42:12;;;;;;;7.28;3.60;;;;;;;24.73;53.81;98815.72;5111818;28;20221;-84
2022/05/24 09:44:48;;;;;;;5.90;3.60;;;;;;;24.56;54.65;98828.47;5112289;28;20572;-78
2022/05/24 09:47:24;;;;;;;4.25;3.53;;;;;;;24.33;55.07;98831.53;5111742;28;20208;-78
2022/05/24 09:49:51;;;;;;;4.65;3.60;;;;;;;23.95;54.52;98834.84;5111802;28;20655;-83
2022/05/24 09:52:19;;;;;;;4.28;3.35;;;;;;;24.12;56.04;98834.41;5111937;28;20214;-79
2022/05/24 09:54:55;;;;;;;6.72;3.83;;;;;;;23.85;56.20;98836.25;5111599;28;20654;-78
2022/05/24 09:57:25;;;;;;;12.07;4.63;;;;;;;23.61;57.07;98848.88;5109878;28;20225;-80
2022/05/24 10:00:03;;;;;;;6.32;4.50;;;;;;;23.43;53.95;98840.84;5110125;28;20241;-79
2022/05/24 10:02:32;;;;;;;6.88;4.25;;;;;;;23.22;55.21;98860.91;5111509;28;20245;-80
2022/05/24 10:05:01;;;;;;;7.28;5.07;;;;;;;22.64;54.87;98890.97;5111484;28;20250;-83
2022/05/24 10:07:31;;;;;;;8.38;5.10;;;;;;;22.27;56.70;98956.25;5111361;28;20225;-80
2022/05/24 10:10:03;;;;;;;8.33;4.30;;;;;;;21.85;53.88;99002.16;5111552;28;20202;-83
2022/05/24 10:12:42;;;;;;;5.90;3.10;;;;;;;21.60;54.92;99011.31;5111280;28;20220;-78
2022/05/24 10:15:24;;;;;;;11.60;3.80;;;;;;;21.15;58.57;99028.75;5111395;28;20473;-83
2022/05/24 10:18:06;;;;;;;13.17;4.63;;;;;;;20.79;69.11;99052.84;5110974;27;20713;-79
2022/05/24 10:20:40;;;;;;;6.53;4.40;;;;;;;20.25;74.52;99063.34;5111096;28;20249;-85
2022/05/24 10:23:12;;;;;;;8.77;4.67;;;;;;;19.83;79.39;99064.56;5110932;28;20211;-83
2022/05/24 10:25:44;;;;;;;9.38;5.30;;;;;;;19.39;81.21;98989.88;5111318;28;20425;-81
2022/05/24 10:28:37;;;;;;;10.17;5.37;;;;;;;19.34;80.30;98915.19;5111064;28;20225;-84
2022/05/24 10:31:12;;;;;;;10.18;5.75;;;;;;;19.29;83.00;98927.09;5109969;28;20978;-86
2022/05/24 10:39:50;;;;;;;8.57;6.27;;;;;;;18.67;88.49;98938.13;5110867;28;20255;-81
2022/05/24 10:42:31;;;;;;;10.20;6.10;;;;;;;18.70;89.27;98871.31;5110507;28;20220;-80
2022/05/24 10:45:05;;;;;;;9.68;7.00;;;;;;;18.68;90.37;98862.88;5108012;28;20491;-78
2022/05/24 10:47:39;;;;;;;10.33;6.30;;;;;;;18.69;90.89;98885.22;5110945;27;20227;-79
2022/05/24 10:50:10;;;;;;;8.77;5.70;;;;;;;18.70;90.64;98871.31;5110695;28;20201;-80
2022/05/24 10:52:47;;;;;;;8.63;5.80;;;;;;;18.66;91.76;98888.13;5110545;28;20231;-87
2022/05/24 10:55:19;;;;;;;11.27;6.73;;;;;;;18.42;92.17;98868.31;5109895;28;20240;-78
2022/05/24 10:57:53;;;;;;;8.07;5.87;;;;;;;18.15;93.53;98848.00;5110491;28;20293;-79
2022/05/24 11:00:24;;;;;;;11.30;6.60;;;;;;;17.95;94.19;98840.59;5110918;28;20232;-87
2022/05/24 11:03:01;;;;;;;9.60;6.60;;;;;;;17.84;95.81;98818.47;5110385;28;20217;-79
2022/05/24 11:05:30;;;;;;;10.20;6.80;;;;;;;17.67;96.59;98806.50;5110483;28;20229;-87
2022/05/24 11:08:03;;;;;;;12.43;7.50;;;;;;;17.67;97.49;98814.25;5110456;28;20213;-88
2022/05/24 11:10:35;;;;;;;12.13;7.40;;;;;;;17.81;98.03;98818.00;5110371;28;20199;-83
2022/05/24 11:13:08;;;;;;;8.53;6.70;;;;;;;17.86;97.71;98813.94;5110180;28;20218;-80
2022/05/24 11:15:40;;;;;;;13.67;7.17;;;;;;;17.62;99.43;98795.81;5110300;28;20201;-86
2022/05/24 11:18:15;;;;;;;8.23;7.30;;;;;;;17.41;100.00;98789.38;5110133;28;20595;-89
2022/05/24 11:21:01;;;;;;;9.50;7.27;;;;;;;17.43;100.00;98776.31;5110325;28;20714;-82
2022/05/24 11:23:36;;;;;;;10.80;8.00;;;;;;;17.49;100.00;98774.84;5110302;28;20505;-87
2022/05/24 11:26:11;;;;;;;11.20;7.87;;;;;;;17.54;100.00;98775.16;5109812;28;20223;-81
2022/05/24 11:28:47;;;;;;;8.30;7.23;;;;;;;17.59;99.70;98767.72;5109932;28;20196;-87
2022/05/24 11:31:28;;;;;;;10.47;8.53;;;;;;;17.85;99.31;98763.16;5109985;28;20204;-87
2022/05/24 11:33:57;;;;;;;9.13;7.97;;;;;;;17.90;95.16;98780.00;5109507;28;20607;-81
2022/05/24 11:36:41;;;;;;;8.40;5.60;;;;;;;17.95;92.25;98795.81;5109746;28;20252;-83
2022/05/24 11:39:12;;;;;;;7.73;5.80;;;;;;;18.32;92.95;98803.81;5108500;28;20217;-83
2022/05/24 11:41:39;;;;;;;6.80;4.80;;;;;;;18.67;89.73;98806.88;5109925;28;20621;-84
2022/05/24 11:44:08;;;;;;;5.73;4.90;;;;;;;19.06;90.04;98813.81;5109674;28;20208;-77
2022/05/24 11:46:47;;;;;;;4.97;3.97;;;;;;;19.25;83.57;98824.69;5109489;28;20728;-78
2022/05/24 11:49:52;;;;;;;5.77;3.50;;;;;;;19.59;81.88;98819.91;5109683;28;20734;-85
2022/05/24 11:52:45;;;;;;;3.83;3.43;;;;;;;20.00;82.33;98822.13;5033604;28;20236;-79
2022/05/24 11:55:39;;;;;;;4.00;3.00;;;;;;;20.15;75.78;98824.75;5109598;28;20690;-78
2022/05/24 11:58:21;;;;;;;4.77;3.13;;;;;;;20.57;79.60;98813.75;5109507;28;20702;-79
2022/05/24 12:00:57;;;;;;;3.53;2.80;;;;;;;20.56;69.22;98821.69;5109450;28;20240;-83
2022/05/24 12:09:14;;;;;;;5.67;3.90;;;;;;;21.59;77.39;98830.19;5109611;28;20204;-80
2022/05/24 12:11:41;;;;;;;5.03;4.10;;;;;;;21.63;80.55;98831.41;5109714;28;20243;-82
2022/05/24 12:14:16;;;;;;;5.47;3.93;;;;;;;21.46;78.17;98823.84;5109509;28;20396;-78
2022/05/24 12:16:48;;;;;;;7.37;4.07;;;;;;;21.62;80.25;98811.59;5109699;28;20228;-77